Lagoon City, Ontario

Past 24 Hour Conditions

This table is a summary of hourly weather conditions for the past 24 hours. This summary includes the following parameters: temperature, humidity, dew point, wind speed and direction, air pressure, visibility and/or wind chill and humidex.
Date / Time
(EDT)
Conditions Temp (°F) Humidity (%) Dew Point (°F) Wind (mph) Pressure (inches) Visibility (miles)
23 April 2014
8:00 N/A 34 89 32 NNW 15 29.9 N/A
7:00 N/A 34 94 32 NNW 13 29.9 N/A
6:00 N/A 33   96 32 NNW 11 29.8 N/A
5:00 N/A 34 95 33 NW 14 29.8 N/A
4:00 N/A 35 93 33 NNW 13 gust 20 29.7 N/A
3:00 N/A 36 92 34 NNW 10 29.7 N/A
2:00 N/A 37 94 35 NNW 13 29.7 N/A
1:00 N/A 37 93 35 NW 12 29.7 N/A
00:00 N/A 37 94 35 NW 11 29.7 N/A
22 April 2014
23:00 N/A 37 94 35 NW 12 29.7 N/A
22:00 N/A 37 95 36 NW 10 29.6 N/A
21:00 N/A 37 96 36 WNW 11 29.6 N/A
20:00 N/A 36 97 35 W 9 29.6 N/A
19:00 N/A 37 95 36 NW 10 29.6 N/A
18:00 N/A 37 90 34 WNW 16 29.6 N/A
17:00 N/A 38 89 35 WNW 18 29.6 N/A
16:00 N/A 38 90 35 WNW 19 29.6 N/A
15:00 N/A 38 93 37 NW 9 29.6 N/A
14:00 N/A 39 93 37 NW 12 gust 17 29.6 N/A
13:00 N/A 40 94 38 NW 8 29.6 N/A
12:00 N/A 39 98 38 WNW 17 29.6 N/A
11:00 N/A 40 98 39 WNW 15 29.6 N/A
10:00 N/A 44   98 43 NW 12 29.6 N/A
9:00 N/A 37 99 36 S 4 29.6 N/A
8:00 N/A 38 99 38 S 5 29.6 N/A
N/A
Not available
 ↑ 
Highest temperature
 ↓ 
Lowest temperature

If you require additional historical weather information, please visit Climate Data Online.